Acampo, California
Current Conditions -  °F | °C
As of 3:55 PM on Friday 31 Oct 2014 (Local Time) from KSCK Reporting Station
Moderate Rain Moderate Rain  
Wind Chill: 59°   Ceiling: 1000
Heat Index: 59°   Visibility: 3mi
Dew Point: 57°   Wind: 8mph
Humidity: 93%   Direction: 280°W
Pressure: 29.81"   Gusts: NA
Location:  38.17°N, 121.28°W
Report Text: KSCK 312255Z 28007KT 3SM RA BR BKN010 BKN040 OVC075 15/14 A2981 RMK AO2 SLP093 P0009 T01500139
Loading
Personal Weather Stations






























Interactive Weather Map
Tropical Storm Tracking
New forecast layout! Learn more

10-Day Weather Forecast

Advertisements
Track Severe Weather on mobile